Alger, Michigan
Current Conditions -  °F | °C
As of 6:53 PM on Saturday 25 Oct 2014 (Local Time) from KHTL Reporting Station
Clear Clear  
Wind Chill: 55°   Ceiling: Unl
Heat Index: 55°   Visibility: 10mi
Dew Point: 31°   Wind: 14mph
Humidity: 40%   Direction: 290°WNW
Pressure: 29.74"   Gusts: 22mph
Location:  44.13°N, 84.12°W
Report Text: KHTL 252253Z AUTO 29012G19KT 10SM CLR 13/M01 A2974 RMK AO2 SLP074 T01281006
Loading
Personal Weather Stations






























Interactive Weather Map
Tropical Storm Tracking
New forecast layout! Learn more

10-Day Weather Forecast

Advertisements
Track Severe Weather on mobile